Time;durP1;ratioP1;P1;durP2;ratioP2;P2;SDS_P1;SDS_P2;PMS_P1;PMS_P2;Temp;Humidity;BMP_temperature;BMP_pressure;BME280_temperature;BME280_humidity;BME280_pressure;Samples;Min_cycle;Max_cycle;Signal;HPM_P1;HPM_P2
2021/04/01 00:00:50;;;;;;;43.03;28.05;;;;;;;;;;5029757;23;20088;-63
2021/04/01 00:03:17;;;;;;;38.90;27.90;;;;;;;;;;5005730;28;20040;-63
2021/04/01 00:05:43;;;;;;;42.72;28.35;;;;;;;;;;5013288;28;20101;-64
2021/04/01 00:08:09;;;;;;;40.20;28.27;;;;;;;;;;5013443;28;20033;-61
2021/04/01 00:10:43;;;;;;;38.90;28.83;;;;;;;;;;5023455;28;20029;-60
2021/04/01 00:13:10;;;;;;;41.22;29.08;;;;;;;;;;5013712;28;20033;-63
2021/04/01 00:15:39;;;;;;;42.22;27.27;;;;;;;;;;5010683;28;20045;-63
2021/04/01 00:18:06;;;;;;;41.28;26.88;;;;;;;;;;5026571;28;20045;-62
2021/04/01 00:20:32;;;;;;;39.83;27.85;;;;;;;;;;5011878;28;20033;-66
2021/04/01 00:22:58;;;;;;;41.85;28.05;;;;;;;;;;5012116;28;20164;-63
2021/04/01 00:25:24;;;;;;;42.47;28.80;;;;;;;;;;5013064;28;20110;-64
2021/04/01 00:27:51;;;;;;;37.53;27.98;;;;;;;;;;5012000;28;20075;-63
2021/04/01 00:30:17;;;;;;;40.25;26.75;;;;;;;;;;5013221;28;20022;-66
2021/04/01 00:32:45;;;;;;;46.90;27.13;;;;;;;;;;5013245;28;20026;-65
2021/04/01 00:35:11;;;;;;;;;;;;;;;;;;5013480;28;20021;-61
2021/04/01 00:37:37;;;;;;;41.90;27.15;;;;;;;;;;5012028;28;19906;-64
2021/04/01 00:40:05;;;;;;;40.90;26.92;;;;;;;;;;5011813;28;20479;-64
2021/04/01 00:42:31;;;;;;;40.72;27.13;;;;;;;;;;5013125;28;20073;-62
2021/04/01 00:45:01;;;;;;;39.17;27.92;;;;;;;;;;5011714;28;20124;-64
2021/04/01 00:47:32;;;;;;;39.20;25.92;;;;;;;;;;5008159;28;20382;-62
2021/04/01 00:49:58;;;;;;;38.92;26.63;;;;;;;;;;5012870;28;20029;-64
2021/04/01 00:52:25;;;;;;;44.28;28.58;;;;;;;;;;5012669;28;20034;-63
2021/04/01 00:54:51;;;;;;;40.63;27.83;;;;;;;;;;5011233;28;20113;-63
2021/04/01 00:57:17;;;;;;;37.90;26.52;;;;;;;;;;5010931;28;20033;-63
2021/04/01 00:59:43;;;;;;;38.28;27.15;;;;;;;;;;5011156;28;20026;-64
2021/04/01 01:02:09;;;;;;;41.85;29.48;;;;;;;;;;5012890;28;20160;-64
2021/04/01 01:04:36;;;;;;;37.92;27.58;;;;;;;;;;5012423;28;20105;-61
2021/04/01 01:07:03;;;;;;;42.30;28.40;;;;;;;;;;5011896;28;20491;-64
2021/04/01 01:09:29;;;;;;;43.65;30.02;;;;;;;;;;5012362;28;20032;-64
2021/04/01 01:11:55;;;;;;;47.80;30.65;;;;;;;;;;5012286;28;20030;-63
2021/04/01 01:14:21;;;;;;;43.08;29.80;;;;;;;;;;5012304;28;20053;-64
2021/04/01 01:16:48;;;;;;;51.65;33.17;;;;;;;;;;5011930;28;20018;-61
2021/04/01 01:19:14;;;;;;;48.13;31.35;;;;;;;;;;5012273;28;20030;-62
2021/04/01 01:21:40;;;;;;;48.50;31.88;;;;;;;;;;5011084;28;20018;-64
2021/04/01 01:24:18;;;;;;;51.30;34.53;;;;;;;;;;5012054;28;20025;-64
2021/04/01 01:26:46;;;;;;;48.42;31.83;;;;;;;;;;5012069;28;20017;-63
2021/04/01 01:29:13;;;;;;;46.60;32.80;;;;;;;;;;5008974;28;20522;-61
2021/04/01 01:31:45;;;;;;;48.92;31.67;;;;;;;;;;5012290;28;20072;-61
2021/04/01 01:34:11;;;;;;;48.42;33.83;;;;;;;;;;5012087;28;20045;-62
2021/04/01 01:36:37;;;;;;;45.78;32.13;;;;;;;;;;5012262;28;20514;-61
2021/04/01 01:39:03;;;;;;;48.78;32.95;;;;;;;;;;5012200;28;20101;-61
2021/04/01 01:41:29;;;;;;;46.15;31.88;;;;;;;;;;5012167;28;20026;-63
2021/04/01 01:43:57;;;;;;;45.13;31.80;;;;;;;;;;5010875;28;20583;-63
2021/04/01 01:46:23;;;;;;;46.40;32.45;;;;;;;;;;5012558;28;20026;-64
2021/04/01 01:48:49;;;;;;;46.88;32.65;;;;;;;;;;5005540;28;20061;-62
2021/04/01 01:51:15;;;;;;;44.00;31.42;;;;;;;;;;5011727;28;20084;-61
2021/04/01 01:53:41;;;;;;;48.17;33.17;;;;;;;;;;5010627;28;20029;-63
2021/04/01 01:56:07;;;;;;;44.22;31.90;;;;;;;;;;5012129;28;20026;-65
2021/04/01 01:58:34;;;;;;;47.78;31.88;;;;;;;;;;5012018;28;20105;-63
2021/04/01 02:01:02;;;;;;;48.10;33.40;;;;;;;;;;5012040;28;20411;-60
2021/04/01 02:03:28;;;;;;;44.60;30.48;;;;;;;;;;5012010;28;20042;-64
2021/04/01 02:05:54;;;;;;;49.60;30.92;;;;;;;;;;5010727;28;20096;-64
2021/04/01 02:08:20;;;;;;;45.20;31.08;;;;;;;;;;5012089;28;20435;-61
2021/04/01 02:10:50;;;;;;;44.17;31.77;;;;;;;;;;5010668;28;20022;-62
2021/04/01 02:13:17;;;;;;;46.75;31.58;;;;;;;;;;5010653;28;20033;-63
2021/04/01 02:15:44;;;;;;;44.00;31.33;;;;;;;;;;5006680;28;20479;-64
2021/04/01 02:18:11;;;;;;;47.25;33.00;;;;;;;;;;5012217;28;20080;-63
2021/04/01 02:20:42;;;;;;;44.33;31.60;;;;;;;;;;5015380;28;20491;-63
2021/04/01 02:23:09;;;;;;;50.53;32.80;;;;;;;;;;5014229;28;20030;-63
2021/04/01 02:25:36;;;;;;;46.08;32.78;;;;;;;;;;5015313;28;20032;-62
2021/04/01 02:28:02;;;;;;;48.70;32.20;;;;;;;;;;5015539;28;20514;-61
2021/04/01 02:30:28;;;;;;;45.70;32.92;;;;;;;;;;5013940;28;20049;-64
2021/04/01 02:32:54;;;;;;;48.97;32.80;;;;;;;;;;5015375;28;20100;-62
2021/04/01 02:35:20;;;;;;;45.65;32.45;;;;;;;;;;5015133;28;20018;-63
2021/04/01 02:37:46;;;;;;;47.20;31.42;;;;;;;;;;5015433;28;20074;-63
2021/04/01 02:40:13;;;;;;;47.22;31.92;;;;;;;;;;5013989;28;20029;-64
2021/04/01 02:42:39;;;;;;;44.03;30.90;;;;;;;;;;5015328;28;20034;-62
2021/04/01 02:45:05;;;;;;;43.88;30.05;;;;;;;;;;5010584;28;20057;-66
2021/04/01 02:47:31;;;;;;;48.85;32.40;;;;;;;;;;5012913;28;20102;-63
2021/04/01 02:49:57;;;;;;;47.10;33.80;;;;;;;;;;5014978;28;20108;-63
2021/04/01 02:52:23;;;;;;;40.72;30.75;;;;;;;;;;5013933;28;20025;-63
2021/04/01 02:54:49;;;;;;;44.42;30.05;;;;;;;;;;5014933;28;20018;-63
2021/04/01 02:57:16;;;;;;;48.78;31.13;;;;;;;;;;5015140;28;20030;-63
2021/04/01 02:59:44;;;;;;;44.33;31.35;;;;;;;;;;5014138;28;20096;-63
2021/04/01 03:02:14;;;;;;;47.80;31.88;;;;;;;;;;5015023;28;20021;-62
2021/04/01 03:04:40;;;;;;;44.47;32.55;;;;;;;;;;5014579;28;20022;-63
2021/04/01 03:07:06;;;;;;;46.08;31.98;;;;;;;;;;5014740;28;20112;-62
2021/04/01 03:09:32;;;;;;;45.78;31.92;;;;;;;;;;5013281;28;20103;-62
2021/04/01 03:11:58;;;;;;;46.63;33.55;;;;;;;;;;5014723;28;20022;-63
2021/04/01 03:14:24;;;;;;;49.17;33.42;;;;;;;;;;5014426;28;20045;-63
2021/04/01 03:16:50;;;;;;;45.92;33.03;;;;;;;;;;5007761;28;20026;-63
2021/04/01 03:19:16;;;;;;;47.20;32.30;;;;;;;;;;5014377;28;20034;-62
2021/04/01 03:21:43;;;;;;;51.20;33.42;;;;;;;;;;5013479;28;20498;-63
2021/04/01 03:24:09;;;;;;;49.83;32.00;;;;;;;;;;5014192;28;20041;-62
2021/04/01 03:26:35;;;;;;;51.90;33.95;;;;;;;;;;5014622;28;20037;-63
2021/04/01 03:29:01;;;;;;;48.80;33.97;;;;;;;;;;5014365;28;20087;-63
2021/04/01 03:31:27;;;;;;;46.72;32.15;;;;;;;;;;5013616;28;20021;-61
2021/04/01 03:33:54;;;;;;;46.58;32.10;;;;;;;;;;5014122;28;20037;-62
2021/04/01 03:36:20;;;;;;;43.70;31.13;;;;;;;;;;5013034;28;20029;-63
2021/04/01 03:38:47;;;;;;;52.03;32.95;;;;;;;;;;5014076;28;20504;-61
2021/04/01 03:41:13;;;;;;;43.83;31.75;;;;;;;;;;5014213;28;20053;-62
2021/04/01 03:43:40;;;;;;;47.83;32.70;;;;;;;;;;5013900;28;20487;-63
2021/04/01 03:46:07;;;;;;;48.50;32.53;;;;;;;;;;5007100;28;20361;-63
2021/04/01 03:48:33;;;;;;;48.22;34.75;;;;;;;;;;5014177;28;20479;-63
2021/04/01 03:50:59;;;;;;;51.10;33.88;;;;;;;;;;5012823;28;20032;-63
2021/04/01 03:53:25;;;;;;;47.40;33.22;;;;;;;;;;5013596;28;20025;-63
2021/04/01 03:55:52;;;;;;;50.03;34.63;;;;;;;;;;5014160;28;20418;-63
2021/04/01 04:00:52;;;;;;;54.80;35.53;;;;;;;;;;5014092;28;20038;-63
2021/04/01 04:11:36;;;;;;;56.33;34.53;;;;;;;;;;5013636;28;20041;-61
2021/04/01 04:14:17;;;;;;;51.00;34.25;;;;;;;;;;5013440;28;20132;-63
2021/04/01 04:16:43;;;;;;;50.40;34.97;;;;;;;;;;5013097;28;20053;-62
2021/04/01 04:19:10;;;;;;;50.75;34.80;;;;;;;;;;5018531;28;20066;-63
2021/04/01 04:21:36;;;;;;;51.63;35.83;;;;;;;;;;5013054;28;20026;-62
2021/04/01 04:24:04;;;;;;;48.40;33.97;;;;;;;;;;5012808;28;20491;-62
2021/04/01 04:26:30;;;;;;;55.15;35.75;;;;;;;;;;5011897;28;20507;-63
2021/04/01 04:28:56;;;;;;;48.60;35.35;;;;;;;;;;5013323;28;20026;-63
2021/04/01 04:31:22;;;;;;;49.88;33.30;;;;;;;;;;5013309;28;20462;-63
2021/04/01 04:33:48;;;;;;;54.03;35.33;;;;;;;;;;5013200;28;20022;-63
2021/04/01 04:36:14;;;;;;;50.25;34.80;;;;;;;;;;5011883;28;20030;-63
2021/04/01 04:38:40;;;;;;;54.95;35.45;;;;;;;;;;5013136;28;20022;-62
2021/04/01 04:41:06;;;;;;;55.85;37.50;;;;;;;;;;5013046;28;20025;-61
2021/04/01 04:43:34;;;;;;;52.50;35.55;;;;;;;;;;5013252;28;20026;-63
2021/04/01 04:46:03;;;;;;;47.15;33.60;;;;;;;;;;5014538;28;20074;-63
2021/04/01 04:48:29;;;;;;;50.47;34.58;;;;;;;;;;5008589;28;20044;-63
2021/04/01 04:50:56;;;;;;;52.35;34.28;;;;;;;;;;5012670;28;20064;-62
2021/04/01 04:53:23;;;;;;;56.38;34.35;;;;;;;;;;5006829;28;20018;-62
2021/04/01 04:58:54;;;;;;;51.13;34.53;;;;;;;;;;5003531;28;20034;-61
2021/04/01 05:09:15;;;;;;;51.83;34.42;;;;;;;;;;5012545;28;20129;-64
2021/04/01 05:11:41;;;;;;;51.17;33.97;;;;;;;;;;5011274;28;20550;-64
2021/04/01 05:14:07;;;;;;;54.03;34.08;;;;;;;;;;5012120;28;20037;-60
2021/04/01 05:16:33;;;;;;;50.83;33.92;;;;;;;;;;5011253;28;20387;-60
2021/04/01 05:19:02;;;;;;;58.08;35.42;;;;;;;;;;5009047;28;20088;-64
2021/04/01 05:22:13;;;;;;;54.00;32.92;;;;;;;;;;5011444;28;20244;-64
2021/04/01 05:24:20;;;;;;;54.45;32.45;;;;;;;;;;5006432;28;20030;-63
2021/04/01 05:29:29;;;;;;;55.70;33.92;;;;;;;;;;5004184;28;20034;-62
2021/04/01 05:31:55;;;;;;;58.28;35.10;;;;;;;;;;5008787;28;20018;-64
2021/04/01 05:34:24;;;;;;;58.38;36.60;;;;;;;;;;5010743;28;20029;-64
2021/04/01 05:36:51;;;;;;;60.83;35.15;;;;;;;;;;5012283;28;20018;-62
2021/04/01 05:39:19;;;;;;;60.78;37.35;;;;;;;;;;5012171;28;20038;-64
2021/04/01 05:41:49;;;;;;;56.67;34.38;;;;;;;;;;5011045;28;20462;-63
2021/04/01 05:44:23;;;;;;;53.85;35.17;;;;;;;;;;5011611;28;20029;-62
2021/04/01 06:02:38;;;;;;;57.67;33.92;;;;;;;;;;4994723;28;20058;-61
2021/04/01 06:05:07;;;;;;;58.67;34.00;;;;;;;;;;4983706;28;20109;-60
2021/04/01 06:07:41;;;;;;;56.05;35.85;;;;;;;;;;4995638;28;20034;-59
2021/04/01 06:10:07;;;;;;;57.65;34.45;;;;;;;;;;4995382;28;20027;-60
2021/04/01 06:12:34;;;;;;;57.47;35.58;;;;;;;;;;4995879;28;20026;-61
2021/04/01 06:15:13;;;;;;;52.22;33.60;;;;;;;;;;4994483;28;20023;-61
2021/04/01 06:17:46;;;;;;;62.90;36.70;;;;;;;;;;4996030;28;20019;-61
2021/04/01 06:20:13;;;;;;;58.33;36.35;;;;;;;;;;4995120;28;20027;-60
2021/04/01 06:22:40;;;;;;;56.70;34.55;;;;;;;;;;4995282;28;20065;-60
2021/04/01 06:25:09;;;;;;;64.07;37.00;;;;;;;;;;4995280;28;20501;-60
2021/04/01 06:27:39;;;;;;;70.80;35.67;;;;;;;;;;4991723;28;20049;-59
2021/04/01 06:30:20;;;;;;;60.80;36.88;;;;;;;;;;4989967;28;20030;-60
2021/04/01 06:32:50;;;;;;;75.32;40.67;;;;;;;;;;4990648;28;20024;-60
2021/04/01 06:35:23;;;;;;;58.42;35.55;;;;;;;;;;4995207;28;20018;-61
2021/04/01 06:40:38;;;;;;;59.85;35.97;;;;;;;;;;4975727;28;20042;-61
2021/04/01 06:43:21;;;;;;;58.10;35.15;;;;;;;;;;4991425;28;20030;-60
2021/04/01 06:45:47;;;;;;;71.20;38.22;;;;;;;;;;4993837;28;20026;-58
2021/04/01 06:48:19;;;;;;;61.00;39.35;;;;;;;;;;4993594;28;20018;-56
2021/04/01 06:50:47;;;;;;;70.25;41.25;;;;;;;;;;4993364;28;20018;-61
2021/04/01 06:53:21;;;;;;;66.82;40.15;;;;;;;;;;4992648;28;20030;-61
2021/04/01 06:56:14;;;;;;;64.15;41.53;;;;;;;;;;4993582;28;20496;-60
2021/04/01 06:58:52;;;;;;;68.03;41.15;;;;;;;;;;4993409;28;20029;-61
2021/04/01 07:01:38;;;;;;;65.47;39.15;;;;;;;;;;4993326;28;20022;-59
2021/04/01 07:04:05;;;;;;;63.15;40.70;;;;;;;;;;4991331;28;20031;-60
2021/04/01 07:06:39;;;;;;;75.68;40.95;;;;;;;;;;4987892;28;20030;-61
2021/04/01 07:09:25;;;;;;;63.03;39.40;;;;;;;;;;4993630;28;20045;-55
2021/04/01 07:11:54;;;;;;;63.28;38.88;;;;;;;;;;4987692;28;20022;-58
2021/04/01 07:14:24;;;;;;;65.85;41.50;;;13.80;99.90;;;;;;4989277;28;20194;-61
2021/04/01 07:19:50;;;;;;;;;;;14.70;99.90;;;;;;4994545;28;20027;-57
2021/04/01 07:47:32;;;;;;;75.88;43.53;;;15.10;99.90;;;;;;4991200;28;20408;-62
2021/04/01 07:50:19;;;;;;;71.55;45.42;;;15.30;99.90;;;;;;5007964;28;20088;-66
2021/04/01 07:53:04;;;;;;;72.10;45.72;;;15.20;99.90;;;;;;4991056;28;20054;-61
2021/04/01 07:55:40;;;;;;;67.45;42.42;;;15.30;99.90;;;;;;5001680;28;20019;-62
2021/04/01 08:03:50;;;;;;;73.93;45.55;;;15.50;99.90;;;;;;4994129;28;20022;-60
2021/04/01 08:06:04;;;;;;;75.15;47.03;;;15.60;99.90;;;;;;4993602;28;20027;-61
2021/04/01 08:08:35;;;;;;;67.35;42.80;;;;;;;;;;4988699;28;20073;-62
2021/04/01 08:11:02;;;;;;;65.28;45.10;;;;;;;;;;4989787;28;20026;-61
2021/04/01 08:13:31;;;;;;;67.82;44.30;;;;;;;;;;4993527;28;20105;-61
2021/04/01 08:15:59;;;;;;;72.28;46.20;;;;;;;;;;4991918;28;20019;-63
2021/04/01 08:18:28;;;;;;;;;;;;;;;;;;4993462;28;20710;-63
2021/04/01 08:21:05;;;;;;;69.97;43.63;;;;;;;;;;4987904;28;19906;-62
2021/04/01 08:23:35;;;;;;;66.43;44.05;;;15.70;99.90;;;;;;4991419;28;20027;-62
2021/04/01 08:32:22;;;;;;;65.03;41.85;;;16.90;99.90;;;;;;4932629;29;20044;-62
2021/04/01 08:34:49;;;;;;;65.80;42.60;;;16.60;99.90;;;;;;4971465;28;20122;-61
2021/04/01 08:37:16;;;;;;;67.22;42.92;;;16.60;99.90;;;;;;4990164;28;20033;-58
2021/04/01 08:39:45;;;;;;;65.80;44.00;;;16.70;99.90;;;;;;4987168;28;20106;-61
2021/04/01 08:42:43;;;;;;;67.07;44.58;;;16.50;99.90;;;;;;4982354;28;20492;-60
2021/04/01 08:48:36;;;;;;;69.85;45.53;;;16.70;99.90;;;;;;4987111;28;20073;-60
2021/04/01 08:51:08;;;;;;;69.13;43.78;;;16.70;99.90;;;;;;4967111;28;20133;-60
2021/04/01 08:53:43;;;;;;;65.07;44.05;;;16.70;99.90;;;;;;4989897;28;20022;-61
2021/04/01 08:56:38;;;;;;;68.80;45.65;;;16.60;99.90;;;;;;4996658;28;20077;-61
2021/04/01 08:59:28;;;;;;;68.38;44.67;;;16.70;99.90;;;;;;4986967;28;20090;-59
2021/04/01 09:01:57;;;;;;;65.00;44.80;;;16.80;99.90;;;;;;4989628;28;20049;-62
2021/04/01 09:04:29;;;;;;;72.82;48.75;;;16.90;99.90;;;;;;4984255;28;20152;-62
2021/04/01 09:07:03;;;;;;;70.57;47.85;;;16.90;99.90;;;;;;4992189;28;20145;-62
2021/04/01 09:09:35;;;;;;;71.93;46.25;;;16.80;99.90;;;;;;4992315;28;20026;-62
2021/04/01 09:12:17;;;;;;;69.72;45.85;;;16.80;99.90;;;;;;4983507;28;20114;-61
2021/04/01 09:14:49;;;;;;;66.93;43.40;;;16.70;99.90;;;;;;4990897;28;20029;-62
2021/04/01 09:17:19;;;;;;;68.78;44.67;;;16.80;99.90;;;;;;4990498;28;21460;-62
2021/04/01 09:19:45;;;;;;;69.13;45.90;;;16.90;99.90;;;;;;4987847;28;20571;-62
2021/04/01 09:22:21;;;;;;;66.43;44.38;;;16.90;99.90;;;;;;4991983;28;20065;-61
2021/04/01 09:25:02;;;;;;;75.45;47.38;;;17.10;99.90;;;;;;4991679;28;20160;-59
2021/04/01 09:27:28;;;;;;;73.28;47.83;;;17.10;99.90;;;;;;4992051;28;20029;-61
2021/04/01 09:30:09;;;;;;;70.93;45.58;;;17.20;99.90;;;;;;4989182;28;20026;-58
2021/04/01 09:32:37;;;;;;;68.03;46.78;;;17.20;99.90;;;;;;4990568;28;20027;-61
2021/04/01 09:35:04;;;;;;;69.10;46.17;;;17.10;99.90;;;;;;4990417;28;20022;-62
2021/04/01 09:37:30;;;;;;;73.87;47.07;;;17.20;99.90;;;;;;4987127;28;20038;-60
2021/04/01 09:40:11;;;;;;;68.78;45.17;;;17.40;99.90;;;;;;4990129;28;20026;-62
2021/04/01 09:42:42;;;;;;;78.00;50.58;;;17.50;99.90;;;;;;4991627;28;20494;-62
2021/04/01 09:45:10;;;;;;;75.90;51.13;;;17.60;99.90;;;;;;4990689;28;20058;-62
2021/04/01 09:47:45;;;;;;;74.85;49.88;;;17.60;99.90;;;;;;4992400;28;20030;-61
2021/04/01 09:50:12;;;;;;;75.25;50.13;;;17.70;99.90;;;;;;4992240;28;20034;-61
2021/04/01 09:52:40;;;;;;;69.90;48.10;;;17.50;99.90;;;;;;4990771;28;20080;-61
2021/04/01 09:55:12;;;;;;;76.90;51.25;;;17.60;99.90;;;;;;4992138;28;20054;-58
2021/04/01 09:57:46;;;;;;;73.57;49.92;;;17.70;99.90;;;;;;4991004;28;20412;-57
2021/04/01 10:02:50;;;;;;;80.03;51.75;;;;;;;;;;4992357;28;20398;-59
2021/04/01 10:05:19;;;;;;;73.10;51.67;;;;;;;;;;4991910;28;20165;-58
2021/04/01 10:07:56;;;;;;;82.28;55.75;;;;;;;;;;4990206;28;20034;-59
2021/04/01 10:10:43;;;;;;;80.40;53.75;;;;;;;;;;4991291;28;20520;-60
2021/04/01 10:13:19;;;;;;;81.05;56.10;;;;;;;;;;4990406;28;20026;-58
2021/04/01 10:15:45;;;;;;;73.43;52.90;;;;;;;;;;4991905;28;20620;-60
2021/04/01 10:18:14;;;;;;;79.90;55.92;;;;;;;;;;4990665;28;20018;-60
2021/04/01 10:20:40;;;;;;;82.60;55.78;;;;;;;;;;4990512;28;20364;-60
2021/04/01 10:23:07;;;;;;;84.03;57.40;;;;;;;;;;4992419;28;20447;-61
2021/04/01 10:25:47;;;;;;;82.68;54.58;;;;;;;;;;4991905;28;20076;-62
2021/04/01 10:28:25;;;;;;;83.10;56.38;;;;;;;;;;4990586;28;20427;-62
2021/04/01 10:30:52;;;;;;;81.03;54.95;;;;;;;;;;4992468;28;20117;-61
2021/04/01 10:33:18;;;;;;;83.93;57.92;;;;;;;;;;4992131;28;20069;-60
2021/04/01 10:35:48;;;;;;;92.18;60.03;;;;;;;;;;4990820;28;20033;-62
2021/04/01 10:38:15;;;;;;;83.93;56.08;;;;;;;;;;4991865;28;20117;-60
2021/04/01 10:40:41;;;;;;;79.13;54.90;;;;;;;;;;4993147;28;20037;-58
2021/04/01 10:43:11;;;;;;;81.35;56.40;;;;;;;;;;4993811;28;20030;-59
2021/04/01 10:45:38;;;;;;;82.57;56.38;;;;;;;;;;4995506;28;20026;-60
2021/04/01 10:48:04;;;;;;;87.28;56.92;;;;;;;;;;4994011;28;20027;-60
2021/04/01 10:50:31;;;;;;;79.07;56.20;;;;;;;;;;4995110;28;20080;-56
2021/04/01 10:52:57;;;;;;;81.93;55.10;;;;;;;;;;4993902;28;20069;-63
2021/04/01 10:55:24;;;;;;;84.47;59.30;;;;;;;;;;4994995;28;20365;-60
2021/04/01 10:57:51;;;;;;;78.38;54.67;;;;;;;;;;4995048;28;20030;-57
2021/04/01 11:00:17;;;;;;;86.88;58.00;;;;;;;;;;4993256;28;20109;-58
2021/04/01 11:02:55;;;;;;;80.00;55.47;;;;;;;;;;4995014;28;20030;-60
2021/04/01 11:05:26;;;;;;;88.03;56.63;;;;;;;;;;4994907;28;20034;-59
2021/04/01 11:08:01;;;;;;;76.32;54.10;;;;;;;;;;4993487;28;20042;-60
2021/04/01 11:10:29;;;;;;;75.55;54.05;;;;;;;;;;4994873;28;20353;-60
2021/04/01 11:12:58;;;;;;;72.22;52.60;;;;;;;;;;4993515;28;20027;-59
2021/04/01 11:15:25;;;;;;;69.05;52.42;;;;;;;;;;4994703;28;20023;-62
2021/04/01 11:17:54;;;;;;;70.63;50.08;;;;;;;;;;4994647;28;20098;-56
2021/04/01 11:20:22;;;;;;;66.13;45.85;;;;;;;;;;4993329;28;20033;-61
2021/04/01 11:22:51;;;;;;;;;;;;;;;;;;4994822;28;20042;-59
2021/04/01 11:25:16;;;;;;;;;;;17.80;99.90;;;;;;4994734;28;19941;-58
2021/04/01 11:27:52;;;;;;;49.65;37.28;;;21.30;91.20;;;;;;4994615;28;19906;-59
2021/04/01 11:30:18;;;;;;;52.13;37.40;;;21.90;89.30;;;;;;4994256;28;20022;-59
2021/04/01 11:32:53;;;;;;;50.88;38.75;;;22.40;86.70;;;;;;4994257;28;20022;-59
2021/04/01 11:35:21;;;;;;;47.47;35.42;;;23.10;84.30;;;;;;4993061;28;20365;-59
2021/04/01 11:37:50;;;;;;;41.95;31.02;;;23.30;81.70;;;;;;4993342;28;20029;-60
2021/04/01 11:40:16;;;;;;;38.05;31.70;;;23.60;79.70;;;;;;4992731;28;20033;-60
2021/04/01 11:42:55;;;;;;;41.00;32.67;;;23.40;77.40;;;;;;4992748;28;20026;-60
2021/04/01 11:45:35;;;;;;;43.50;31.58;;;23.90;76.30;;;;;;4993215;28;20073;-58
2021/04/01 11:48:05;;;;;;;37.28;30.30;;;22.30;76.90;;;;;;4994058;28;20105;-59
2021/04/01 11:50:31;;;;;;;39.95;31.27;;;23.20;77.20;;;;;;4994189;28;20496;-60
2021/04/01 11:52:59;;;;;;;36.97;29.55;;;23.30;75.80;;;;;;4993431;28;20121;-58
2021/04/01 11:55:25;;;;;;;33.22;26.33;;;23.70;75.60;;;;;;4993909;28;20084;-59
2021/04/01 11:57:51;;;;;;;32.85;26.17;;;24.20;74.20;;;;;;4994013;28;20026;-60
2021/04/01 12:00:26;;;;;;;30.38;24.75;;;24.70;71.50;;;;;;5018192;23;20041;-62
2021/04/01 12:03:08;;;;;;;30.60;24.35;;;24.90;71.50;;;;;;5013327;28;20030;-63
2021/04/01 12:05:40;;;;;;;27.30;22.60;;;24.60;70.00;;;;;;4994962;28;20030;-63
2021/04/01 12:08:06;;;;;;;26.95;22.70;;;24.90;69.60;;;;;;5013574;28;20087;-62
2021/04/01 12:10:32;;;;;;;31.10;22.75;;;24.80;70.00;;;;;;4996573;28;20522;-63
2021/04/01 12:12:58;;;;;;;28.52;23.08;;;25.00;68.10;;;;;;5013429;28;20483;-64
2021/04/01 12:15:41;;;;;;;26.92;22.48;;;24.30;68.30;;;;;;5011951;28;20038;-63
2021/04/01 12:18:09;;;;;;;28.60;21.45;;;25.00;69.00;;;;;;5013073;28;20026;-59
2021/04/01 12:20:36;;;;;;;26.50;23.02;;;24.80;68.90;;;;;;5007388;28;20029;-61
2021/04/01 12:23:16;;;;;;;27.45;21.23;;;24.60;69.50;;;;;;5013078;28;20108;-58
2021/04/01 12:25:43;;;;;;;24.65;19.60;;;23.90;68.30;;;;;;5010734;28;20022;-63
2021/04/01 12:28:18;;;;;;;28.17;19.45;;;24.20;69.60;;;;;;5011193;28;20053;-62
2021/04/01 12:30:47;;;;;;;25.02;19.15;;;23.40;68.60;;;;;;5011086;28;20033;-61
2021/04/01 12:33:19;;;;;;;23.58;17.90;;;24.00;68.60;;;;;;5001171;28;20031;-61
2021/04/01 12:35:55;;;;;;;23.27;16.95;;;23.90;70.00;;;;;;5007380;28;20135;-56
2021/04/01 12:38:34;;;;;;;21.90;17.05;;;24.40;67.80;;;;;;5007339;28;20386;-60
2021/04/01 12:41:03;;;;;;;25.02;17.80;;;24.20;68.20;;;;;;5010448;28;20130;-63
2021/04/01 12:43:31;;;;;;;23.60;17.60;;;24.00;68.50;;;;;;5007336;28;20698;-63
2021/04/01 12:45:57;;;;;;;23.73;16.80;;;23.50;69.10;;;;;;5011925;28;20432;-62
2021/04/01 12:48:23;;;;;;;20.58;15.48;;;24.10;68.60;;;;;;5001907;28;20040;-61
2021/04/01 12:50:51;;;;;;;23.48;15.95;;;24.40;66.50;;;;;;5003445;28;20021;-61
2021/04/01 12:53:19;;;;;;;;;;;24.60;67.00;;;;;;5001192;28;20029;-63
2021/04/01 12:55:49;;;;;;;;;;;;;;;;;;;;;
2021/04/01 12:58:28;;;;;;;23.15;15.93;;;25.00;65.70;;;;;;5001880;28;20499;-61
2021/04/01 13:00:58;;;;;;;19.83;15.50;;;25.20;65.60;;;;;;5001867;28;20042;-55
2021/04/01 13:03:24;;;;;;;19.95;15.18;;;25.20;65.50;;;;;;5008473;28;20068;-61
2021/04/01 13:05:54;;;;;;;19.65;15.38;;;24.80;65.50;;;;;;5011918;28;20436;-61
2021/04/01 13:10:46;;;;;;;22.52;15.25;;;25.10;66.30;;;;;;5006754;28;20491;-62
2021/04/01 13:13:12;;;;;;;19.40;14.60;;;25.40;64.40;;;;;;5003615;28;20030;-62
2021/04/01 13:15:38;;;;;;;18.98;14.70;;;25.30;64.50;;;;;;5003906;28;20040;-64
2021/04/01 13:18:06;;;;;;;21.30;15.27;;;25.90;62.90;;;;;;5001629;28;20029;-61
2021/04/01 13:20:33;;;;;;;21.77;14.57;;;25.10;64.00;;;;;;5004545;28;20159;-63
2021/04/01 13:25:27;;;;;;;;;;;24.50;65.60;;;;;;5007697;28;20037;-62
2021/04/01 13:28:01;;;;;;;19.23;14.13;;;24.70;64.90;;;;;;5001802;28;20290;-62
2021/04/01 13:30:30;;;;;;;20.05;14.18;;;25.30;64.30;;;;;;5006661;28;20029;-58
2021/04/01 13:33:05;;;;;;;16.55;14.00;;;25.10;63.60;;;;;;5008719;28;20022;-66
2021/04/01 13:38:23;;;;;;;16.58;13.73;;;25.40;63.00;;;;;;5011809;28;20018;-59
2021/04/01 13:40:48;;;;;;;19.70;13.88;;;25.30;62.60;;;;;;5011131;28;20045;-61
2021/04/01 13:43:17;;;;;;;18.33;13.35;;;25.30;61.90;;;;;;5011361;28;20024;-58
2021/04/01 13:45:43;;;;;;;18.23;14.02;;;25.80;61.80;;;;;;5010392;28;20056;-61
2021/04/01 13:48:14;;;;;;;19.45;14.10;;;26.50;60.70;;;;;;5009936;28;20116;-59
2021/04/01 13:50:52;;;;;;;22.48;14.63;;;25.20;62.50;;;;;;5009716;28;20022;-60
2021/04/01 13:56:01;;;;;;;18.48;13.90;;;24.60;60.80;;;;;;5011481;28;20030;-61
2021/04/01 14:03:48;;;;;;;19.63;14.27;;;;;;;;;;5010900;28;20034;-62
2021/04/01 14:08:58;;;;;;;18.27;13.50;;;25.60;59.40;;;;;;5011672;28;20475;-61
2021/04/01 14:10:03;;;;;;;;;;;;;;;;;;5011902;28;20120;-62
2021/04/01 14:12:31;;;;;;;18.63;14.00;;;25.90;58.10;;;;;;5011485;28;19909;-64
2021/04/01 14:14:57;;;;;;;18.85;13.88;;;26.00;57.50;;;;;;5011064;28;20108;-64
2021/04/01 14:17:24;;;;;;;19.67;14.10;;;26.50;56.40;;;;;;5015286;28;20080;-63
2021/04/01 14:19:53;;;;;;;17.48;13.90;;;26.10;55.50;;;;;;5015236;28;20448;-63
2021/04/01 14:22:20;;;;;;;20.73;14.68;;;26.10;57.40;;;;;;5015005;28;20022;-62
2021/04/01 14:24:53;;;;;;;18.35;14.45;;;26.30;57.00;;;;;;5015053;28;20024;-62
2021/04/01 14:29:47;;;;;;;;;;;24.80;59.30;;;;;;5015462;28;20054;-63
2021/04/01 14:32:14;;;;;;;19.02;14.45;;;25.70;56.60;;;;;;5014279;28;20413;-61
2021/04/01 14:34:40;;;;;;;20.38;14.25;;;25.60;56.00;;;;;;5014809;28;20033;-62
2021/04/01 14:37:07;;;;;;;18.85;14.35;;;25.40;56.90;;;;;;5015186;28;20475;-62
2021/04/01 14:39:32;;;;;;;18.40;13.73;;;25.90;55.70;;;;;;5016904;28;20037;-62
2021/04/01 14:42:18;;;;;;;18.42;14.40;;;25.80;54.90;;;;;;5013639;28;20117;-62
2021/04/01 14:44:44;;;;;;;19.73;14.77;;;25.50;54.80;;;;;;5007334;28;20432;-62
2021/04/01 14:47:11;;;;;;;18.15;13.65;;;25.40;53.60;;;;;;5014895;28;20089;-60
2021/04/01 14:49:37;;;;;;;20.30;15.23;;;25.40;54.20;;;;;;5010178;28;20642;-62
2021/04/01 14:52:03;;;;;;;19.85;14.38;;;25.80;53.90;;;;;;5013368;28;20113;-63
2021/04/01 14:54:31;;;;;;;19.17;13.82;;;25.80;51.90;;;;;;5009899;28;20034;-62
2021/04/01 14:57:04;;;;;;;;;;;25.60;50.50;;;;;;5015010;28;20029;-63
2021/04/01 14:59:32;;;;;;;18.17;14.65;;;25.90;48.90;;;;;;5012899;28;19905;-61
2021/04/01 15:01:59;;;;;;;16.90;14.13;;;24.90;49.30;;;;;;5011012;28;20480;-62
2021/04/01 15:04:26;;;;;;;18.58;14.10;;;25.40;50.50;;;;;;5014126;28;20304;-62
2021/04/01 15:06:53;;;;;;;19.98;14.25;;;25.80;48.50;;;;;;5012893;28;20030;-61
2021/04/01 15:09:23;;;;;;;17.85;14.23;;;25.80;48.70;;;;;;5012106;28;20061;-62
2021/04/01 15:11:49;;;;;;;17.85;14.43;;;25.70;49.40;;;;;;5007047;28;20034;-62
2021/04/01 15:14:16;;;;;;;20.23;14.90;;;26.20;49.40;;;;;;5011443;28;20539;-62
2021/04/01 15:16:43;;;;;;;18.63;14.27;;;;;;;;;;5013744;28;20101;-63
2021/04/01 15:19:12;;;;;;;19.15;14.23;;;26.60;49.90;;;;;;5012307;28;20080;-62
2021/04/01 15:21:37;;;;;;;18.10;14.50;;;26.40;48.40;;;;;;5011539;28;20034;-62
2021/04/01 15:24:04;;;;;;;18.67;14.10;;;;;;;;;;5011934;28;20033;-63
2021/04/01 15:26:30;;;;;;;19.75;14.50;;;;;;;;;;5011895;28;20036;-62
2021/04/01 15:28:56;;;;;;;20.15;15.82;;;;;;;;;;5013841;28;20527;-62
2021/04/01 15:31:24;;;;;;;22.55;14.55;;;;;;;;;;5012526;28;20030;-60
2021/04/01 15:33:50;;;;;;;25.40;19.67;;;;;;;;;;5013459;28;20041;-62
2021/04/01 15:36:16;;;;;;;21.65;16.15;;;;;;;;;;5012280;28;20049;-57